Time;durP1;ratioP1;P1;durP2;ratioP2;P2;SDS_P1;SDS_P2;PMS_P1;PMS_P2;Temp;Humidity;BMP_temperature;BMP_pressure;BME280_temperature;BME280_humidity;BME280_pressure;Samples;Min_cycle;Max_cycle;Signal;HPM_P1;HPM_P2
2022/01/14 00:01:42;;;;;;;34.63;13.52;;;4.90;99.90;;;;;;5095453;28;20028;-76
2022/01/14 00:04:08;;;;;;;27.48;14.50;;;4.90;99.90;;;;;;5091984;28;20052;-75
2022/01/14 00:06:34;;;;;;;31.30;15.20;;;4.90;99.90;;;;;;5088272;28;20028;-74
2022/01/14 00:09:07;;;;;;;32.30;14.40;;;4.90;99.90;;;;;;5075347;28;20054;-77
2022/01/14 00:11:44;;;;;;;32.53;15.40;;;4.80;99.90;;;;;;5076197;28;20085;-77
2022/01/14 00:16:41;;;;;;;31.45;16.20;;;4.90;99.90;;;;;;5075730;28;20043;-76
2022/01/14 00:19:07;;;;;;;25.48;14.43;;;4.80;99.90;;;;;;5074970;28;20036;-77
2022/01/14 00:21:35;;;;;;;27.02;14.02;;;4.90;99.90;;;;;;5074029;28;20020;-76
2022/01/14 00:24:25;;;;;;;29.00;14.45;;;4.90;99.90;;;;;;5075237;28;20036;-76
2022/01/14 00:33:06;;;;;;;29.13;13.98;;;4.70;99.90;;;;;;5074957;28;20059;-77
2022/01/14 00:35:05;;;;;;;31.88;13.00;;;4.70;99.90;;;;;;5066407;28;20439;-77
2022/01/14 00:37:30;;;;;;;26.00;13.68;;;4.70;99.90;;;;;;5074164;28;20395;-75
2022/01/14 00:39:56;;;;;;;27.95;14.40;;;4.70;99.90;;;;;;5074685;28;20487;-76
2022/01/14 00:42:21;;;;;;;25.13;13.88;;;4.60;99.90;;;;;;5074486;28;20431;-77
2022/01/14 00:44:48;;;;;;;31.40;14.27;;;4.70;99.90;;;;;;5074322;28;20032;-76
2022/01/14 00:47:13;;;;;;;24.60;14.15;;;4.70;99.90;;;;;;5073412;28;20384;-76
2022/01/14 00:49:39;;;;;;;23.73;13.55;;;4.70;99.90;;;;;;5074233;28;20021;-75
2022/01/14 00:52:05;;;;;;;27.40;12.57;;;4.70;99.90;;;;;;5074093;28;20027;-76
2022/01/14 00:54:30;;;;;;;31.10;14.75;;;4.70;99.90;;;;;;5074531;28;20396;-76
2022/01/14 00:59:28;;;;;;;24.40;12.15;;;4.70;99.90;;;;;;5074573;28;20579;-77
2022/01/14 01:01:56;;;;;;;26.63;12.35;;;4.70;99.90;;;;;;5075634;28;20057;-76
2022/01/14 01:04:35;;;;;;;33.05;13.75;;;4.70;99.90;;;;;;5073462;28;20143;-76
2022/01/14 01:07:06;;;;;;;23.67;12.35;;;4.70;99.90;;;;;;5074492;28;20152;-76
2022/01/14 01:09:32;;;;;;;29.02;14.05;;;4.70;99.90;;;;;;5073980;28;20056;-76
2022/01/14 01:12:13;;;;;;;25.15;13.73;;;4.70;99.90;;;;;;5073614;28;20028;-76
2022/01/14 01:17:08;;;;;;;32.15;15.95;;;4.70;99.90;;;;;;5072572;28;20469;-76
2022/01/14 01:19:34;;;;;;;33.70;15.70;;;4.70;99.90;;;;;;5074693;28;20116;-75
2022/01/14 01:22:00;;;;;;;30.92;15.70;;;4.60;99.90;;;;;;5074691;28;20025;-76
2022/01/14 01:24:26;;;;;;;31.63;16.48;;;4.60;99.90;;;;;;5073637;28;20025;-75
2022/01/14 01:26:52;;;;;;;36.15;16.38;;;4.60;99.90;;;;;;5074210;28;20073;-76
2022/01/14 01:31:45;;;;;;;29.25;16.48;;;4.60;99.90;;;;;;5074031;28;20028;-76
2022/01/14 01:34:12;;;;;;;31.58;17.58;;;4.50;99.90;;;;;;5072804;28;20028;-76
2022/01/14 01:36:40;;;;;;;30.38;16.27;;;4.60;99.90;;;;;;5074527;28;20047;-76
2022/01/14 01:39:09;;;;;;;33.78;17.73;;;4.60;99.90;;;;;;5073255;28;20020;-76
2022/01/14 01:41:36;;;;;;;27.25;15.55;;;4.50;99.90;;;;;;5074342;28;20371;-76
2022/01/14 01:44:07;;;;;;;38.40;17.92;;;4.50;99.90;;;;;;5073798;28;20036;-76
2022/01/14 01:46:38;;;;;;;35.72;18.58;;;4.50;99.90;;;;;;5073027;28;20082;-76
2022/01/14 01:49:05;;;;;;;33.78;17.48;;;4.50;99.90;;;;;;5073218;28;20088;-76
2022/01/14 01:51:31;;;;;;;33.40;17.67;;;4.50;99.90;;;;;;5082883;28;20112;-76
2022/01/14 01:53:57;;;;;;;31.00;16.67;;;4.50;99.90;;;;;;5092711;28;20110;-77
2022/01/14 01:56:25;;;;;;;35.05;17.77;;;4.40;99.90;;;;;;5093794;28;20024;-77
2022/01/14 01:58:50;;;;;;;31.45;17.00;;;4.40;99.90;;;;;;5093928;28;20412;-76
2022/01/14 02:01:17;;;;;;;31.75;16.80;;;4.40;99.90;;;;;;5092783;28;20044;-76
2022/01/14 02:03:43;;;;;;;34.53;17.02;;;4.40;99.90;;;;;;5093551;28;20039;-77
2022/01/14 02:06:09;;;;;;;32.00;16.67;;;4.40;99.90;;;;;;5093356;28;20031;-76
2022/01/14 02:08:34;;;;;;;36.25;17.63;;;4.30;99.90;;;;;;5093823;28;20028;-76
2022/01/14 02:11:01;;;;;;;37.05;17.73;;;4.30;99.90;;;;;;5093169;28;20020;-76
2022/01/14 02:13:27;;;;;;;37.17;17.95;;;4.30;99.90;;;;;;5092095;28;20119;-76
2022/01/14 02:23:45;;;;;;;29.15;16.45;;;4.40;99.90;;;;;;5093271;28;20491;-76
2022/01/14 02:26:10;;;;;;;32.35;16.25;;;4.40;99.90;;;;;;5093171;28;20384;-77
2022/01/14 02:28:36;;;;;;;24.52;14.50;;;4.40;99.90;;;;;;5092817;28;20085;-76
2022/01/14 02:31:02;;;;;;;29.20;17.10;;;4.40;99.90;;;;;;5093690;28;20161;-76
2022/01/14 02:33:30;;;;;;;31.13;16.25;;;4.40;99.90;;;;;;5092632;28;20094;-76
2022/01/14 02:35:56;;;;;;;28.40;17.13;;;5.40;99.90;;;;;;5092331;28;20016;-77
2022/01/14 02:38:22;;;;;;;33.95;16.85;;;4.50;99.90;;;;;;5092930;28;20036;-77
2022/01/14 02:40:48;;;;;;;42.78;17.02;;;4.50;99.90;;;;;;5092505;28;20020;-76
2022/01/14 02:43:16;;;;;;;24.42;15.43;;;4.50;99.90;;;;;;5091687;28;20090;-76
2022/01/14 02:45:47;;;;;;;28.15;15.18;;;4.40;99.90;;;;;;5093796;28;20024;-77
2022/01/14 02:48:12;;;;;;;27.48;16.33;;;4.50;99.90;;;;;;5096220;28;20032;-76
2022/01/14 02:50:42;;;;;;;47.67;16.98;;;4.50;99.90;;;;;;5095573;28;20028;-77
2022/01/14 02:55:55;;;;;;;29.73;16.92;;;4.50;99.90;;;;;;5095693;28;20488;-76
2022/01/14 02:58:21;;;;;;;28.83;16.17;;;4.50;99.90;;;;;;5096043;28;20023;-77
2022/01/14 03:00:47;;;;;;;28.23;16.30;;;4.50;99.90;;;;;;5096241;28;20024;-76
2022/01/14 03:03:22;;;;;;;32.83;15.07;;;4.40;99.90;;;;;;5095790;28;20387;-75
2022/01/14 03:05:48;;;;;;;23.08;15.10;;;4.40;99.90;;;;;;5096075;28;20040;-74
2022/01/14 03:08:14;;;;;;;25.77;15.20;;;4.50;99.90;;;;;;5097035;28;20031;-76
2022/01/14 03:10:45;;;;;;;34.10;16.48;;;4.40;99.90;;;;;;5095362;28;20414;-77
2022/01/14 03:13:11;;;;;;;25.98;14.07;;;4.40;99.90;;;;;;5095490;28;20109;-77
2022/01/14 03:15:36;;;;;;;30.05;15.75;;;4.50;99.90;;;;;;5095869;28;20079;-76
2022/01/14 03:18:02;;;;;;;29.58;15.75;;;4.40;99.90;;;;;;5095608;28;20024;-76
2022/01/14 03:20:45;;;;;;;26.95;15.27;;;4.50;99.90;;;;;;5095671;28;20020;-77
2022/01/14 03:23:13;;;;;;;25.48;15.25;;;4.50;99.90;;;;;;5096268;28;20032;-76
2022/01/14 03:25:48;;;;;;;28.90;15.07;;;4.40;99.90;;;;;;5096222;28;20039;-76
2022/01/14 03:28:16;;;;;;;30.17;16.05;;;4.40;99.90;;;;;;5096665;28;20126;-75
2022/01/14 03:30:42;;;;;;;36.75;16.77;;;4.40;99.90;;;;;;5095955;28;20413;-75
2022/01/14 03:33:08;;;;;;;27.98;15.25;;;4.40;99.90;;;;;;5096441;28;20028;-76
2022/01/14 03:35:34;;;;;;;25.48;15.20;;;4.30;99.90;;;;;;5097107;28;20428;-77
2022/01/14 03:37:59;;;;;;;27.70;15.18;;;4.40;99.90;;;;;;5095611;28;20379;-76
2022/01/14 03:40:26;;;;;;;23.73;14.35;;;4.30;99.90;;;;;;5096137;28;20024;-77
2022/01/14 03:42:52;;;;;;;21.92;14.13;;;4.30;99.90;;;;;;5097079;28;20028;-76
2022/01/14 03:45:17;;;;;;;24.50;13.02;;;4.30;99.90;;;;;;5095420;28;20513;-76
2022/01/14 03:47:43;;;;;;;22.40;13.98;;;4.30;99.90;;;;;;5095861;28;20424;-76
2022/01/14 03:50:09;;;;;;;23.02;14.45;;;4.20;99.90;;;;;;5095763;28;20024;-76
2022/01/14 03:52:34;;;;;;;22.60;13.23;;;4.20;99.90;;;;;;5095460;28;20034;-77
2022/01/14 03:55:00;;;;;;;21.02;12.77;;;4.20;99.90;;;;;;5095613;28;20111;-76
2022/01/14 03:57:26;;;;;;;25.13;14.30;;;4.10;99.90;;;;;;5095772;28;20475;-76
2022/01/14 03:59:51;;;;;;;22.60;12.88;;;4.10;99.90;;;;;;5095192;28;20073;-76
2022/01/14 04:02:17;;;;;;;23.23;13.50;;;4.10;99.90;;;;;;5095233;28;20024;-77
2022/01/14 04:04:42;;;;;;;26.63;13.32;;;4.10;99.90;;;;;;5095412;28;20043;-76
2022/01/14 04:07:08;;;;;;;24.08;14.25;;;4.10;99.90;;;;;;5093832;28;20031;-77
2022/01/14 04:09:37;;;;;;;25.58;14.50;;;4.10;99.90;;;;;;5095069;28;20131;-76
2022/01/14 04:12:08;;;;;;;21.23;13.23;;;4.10;99.90;;;;;;5094853;28;20027;-76
2022/01/14 04:17:05;;;;;;;27.38;16.02;;;4.10;99.90;;;;;;5094976;28;20133;-78
2022/01/14 04:19:30;;;;;;;23.08;14.18;;;4.10;99.90;;;;;;5094602;28;20111;-75
2022/01/14 04:21:56;;;;;;;54.72;13.98;;;4.10;99.90;;;;;;5093908;28;20103;-75
2022/01/14 04:24:22;;;;;;;25.00;13.02;;;4.10;99.90;;;;;;5094238;28;20119;-75
2022/01/14 04:26:48;;;;;;;23.65;12.00;;;4.10;99.90;;;;;;5094591;28;20020;-76
2022/01/14 04:29:13;;;;;;;19.02;12.35;;;4.10;99.90;;;;;;5093597;28;20087;-75
2022/01/14 04:31:39;;;;;;;22.38;13.23;;;4.10;99.90;;;;;;5094611;28;20099;-75
2022/01/14 04:34:05;;;;;;;24.20;13.90;;;4.00;99.90;;;;;;5093206;28;20036;-75
2022/01/14 04:36:31;;;;;;;24.65;12.85;;;4.00;99.90;;;;;;5094421;28;20379;-75
2022/01/14 04:38:56;;;;;;;24.15;12.20;;;4.00;99.90;;;;;;5094194;28;20031;-75
2022/01/14 04:41:25;;;;;;;20.08;12.52;;;4.00;99.90;;;;;;5093155;28;20487;-75
2022/01/14 04:43:50;;;;;;;21.77;12.98;;;3.90;99.90;;;;;;5093980;28;20535;-75
2022/01/14 04:47:13;;;;;;;20.48;13.25;;;4.00;99.90;;;;;;5093806;28;20107;-75
2022/01/14 04:49:02;;;;;;;26.02;12.48;;;4.00;99.90;;;;;;5085972;28;20043;-75
2022/01/14 04:51:28;;;;;;;23.17;12.90;;;3.90;99.90;;;;;;5094029;28;20383;-75
2022/01/14 04:53:53;;;;;;;19.30;12.23;;;3.90;99.90;;;;;;5093742;28;20028;-75
2022/01/14 04:56:19;;;;;;;20.40;12.85;;;3.90;99.90;;;;;;5092844;28;20099;-75
2022/01/14 04:58:45;;;;;;;21.33;12.40;;;3.90;99.90;;;;;;5093801;28;20028;-75
2022/01/14 05:01:10;;;;;;;17.95;11.27;;;3.90;99.90;;;;;;5093606;28;20020;-75
2022/01/14 05:03:36;;;;;;;30.88;12.57;;;3.90;99.90;;;;;;5092942;28;20417;-75
2022/01/14 05:06:02;;;;;;;15.85;11.18;;;3.90;99.90;;;;;;5093696;28;20034;-75
2022/01/14 05:08:36;;;;;;;17.70;11.48;;;4.00;99.90;;;;;;5092970;28;20024;-75
2022/01/14 05:11:20;;;;;;;18.50;11.25;;;4.00;99.90;;;;;;5092800;28;20036;-75
2022/01/14 05:13:45;;;;;;;30.95;11.23;;;4.00;99.90;;;;;;5093507;28;20047;-75
2022/01/14 05:16:11;;;;;;;17.77;11.77;;;4.00;99.90;;;;;;5092584;28;20375;-75
2022/01/14 05:18:38;;;;;;;18.88;11.02;;;4.10;99.90;;;;;;5093308;28;20028;-75
2022/01/14 05:21:05;;;;;;;17.88;10.25;;;4.10;99.90;;;;;;5093209;28;20028;-74
2022/01/14 05:23:31;;;;;;;18.73;11.15;;;4.00;99.90;;;;;;5092755;28;20112;-74
2022/01/14 05:25:56;;;;;;;29.42;11.40;;;4.00;99.90;;;;;;5094230;28;20048;-74
2022/01/14 05:28:22;;;;;;;23.90;12.63;;;3.90;99.90;;;;;;5093250;28;20581;-74
2022/01/14 05:30:48;;;;;;;29.90;12.25;;;3.90;99.90;;;;;;5092793;28;20020;-74
2022/01/14 05:33:15;;;;;;;17.30;12.38;;;3.90;99.90;;;;;;5093241;28;20077;-74
2022/01/14 05:35:41;;;;;;;23.05;12.18;;;3.90;99.90;;;;;;5093861;28;20032;-74
2022/01/14 05:38:07;;;;;;;16.98;10.65;;;3.90;99.90;;;;;;5092645;28;20077;-74
2022/01/14 05:40:33;;;;;;;24.77;12.48;;;3.90;99.90;;;;;;5093816;28;20088;-75
2022/01/14 05:42:59;;;;;;;21.90;11.52;;;3.90;99.90;;;;;;5093335;28;20027;-74
2022/01/14 05:45:25;;;;;;;22.25;11.60;;;3.90;99.90;;;;;;5092045;28;20032;-74
2022/01/14 05:47:51;;;;;;;23.55;12.48;;;4.00;99.90;;;;;;5092883;28;20052;-74
2022/01/14 05:50:19;;;;;;;25.48;12.10;;;3.90;99.90;;;;;;5092489;28;20152;-73
2022/01/14 05:52:45;;;;;;;20.67;13.65;;;3.80;99.90;;;;;;5092229;28;20066;-74
2022/01/14 05:55:13;;;;;;;19.98;13.10;;;3.90;99.90;;;;;;5092480;28;20080;-74
2022/01/14 05:57:39;;;;;;;25.98;11.80;;;3.90;99.90;;;;;;5092765;28;20020;-75
2022/01/14 06:00:24;;;;;;;27.65;14.52;;;3.90;99.90;;;;;;5091713;28;20107;-74
2022/01/14 06:02:51;;;;;;;23.13;11.55;;;3.90;99.90;;;;;;5092178;28;20043;-74
2022/01/14 06:05:18;;;;;;;16.52;11.48;;;3.90;99.90;;;;;;5091757;28;20487;-75
2022/01/14 06:07:44;;;;;;;16.35;11.90;;;3.90;99.90;;;;;;5092753;28;20035;-74
2022/01/14 06:10:10;;;;;;;15.68;11.60;;;3.90;99.90;;;;;;5092285;28;20024;-75
2022/01/14 06:12:36;;;;;;;19.98;11.60;;;3.90;99.90;;;;;;5091670;28;20016;-74
2022/01/14 06:15:02;;;;;;;20.35;13.20;;;3.90;99.90;;;;;;5092313;28;20108;-74
2022/01/14 06:17:28;;;;;;;32.40;13.57;;;3.90;99.90;;;;;;5092214;28;20099;-74
2022/01/14 06:19:53;;;;;;;20.58;11.35;;;3.90;99.90;;;;;;5090925;28;20111;-75
2022/01/14 06:22:22;;;;;;;15.13;11.07;;;3.90;99.90;;;;;;5092141;28;20348;-74
2022/01/14 06:24:49;;;;;;;14.57;11.43;;;4.00;99.90;;;;;;5092165;28;20467;-75
2022/01/14 06:27:14;;;;;;;17.00;11.10;;;3.90;99.90;;;;;;5089972;28;20039;-74
2022/01/14 06:29:40;;;;;;;19.23;11.77;;;4.00;99.90;;;;;;5092231;28;20032;-74
2022/01/14 06:32:06;;;;;;;28.63;11.57;;;3.90;99.90;;;;;;5091563;28;20017;-74
2022/01/14 06:34:31;;;;;;;14.55;10.90;;;3.90;99.90;;;;;;5091620;28;20111;-75
2022/01/14 06:36:57;;;;;;;15.60;10.10;;;3.90;99.90;;;;;;5092408;28;20104;-75
2022/01/14 06:39:22;;;;;;;27.88;9.73;;;3.90;99.90;;;;;;5092399;28;20031;-75
2022/01/14 06:41:48;;;;;;;18.20;10.00;;;3.90;99.90;;;;;;5092604;28;20479;-74
2022/01/14 06:44:13;;;;;;;19.95;10.00;;;3.90;99.90;;;;;;5091612;28;20110;-74
2022/01/14 06:46:39;;;;;;;19.88;10.52;;;3.80;99.90;;;;;;5092050;28;20396;-75
2022/01/14 06:49:05;;;;;;;16.70;10.15;;;3.80;99.90;;;;;;5091296;28;20024;-75
2022/01/14 06:51:30;;;;;;;12.82;9.75;;;3.70;99.90;;;;;;5092354;28;20023;-76
2022/01/14 06:53:56;;;;;;;24.75;9.93;;;3.70;99.90;;;;;;5076714;28;20186;-74
2022/01/14 06:56:21;;;;;;;18.55;10.25;;;3.70;99.90;;;;;;5071411;28;20101;-76
2022/01/14 06:58:47;;;;;;;14.20;9.82;;;3.70;99.90;;;;;;5073140;28;20534;-75
2022/01/14 07:01:13;;;;;;;16.63;9.90;;;3.70;99.90;;;;;;5074395;28;20472;-74
2022/01/14 07:03:39;;;;;;;12.65;9.68;;;3.70;99.90;;;;;;5071150;28;20071;-75
2022/01/14 07:06:04;;;;;;;11.00;9.32;;;3.60;99.90;;;;;;5071228;28;20485;-75
2022/01/14 07:08:30;;;;;;;13.20;9.30;;;3.60;99.90;;;;;;5072212;28;20025;-77
2022/01/14 07:10:56;;;;;;;21.40;9.55;;;3.60;99.90;;;;;;5079978;28;20023;-76
2022/01/14 07:13:21;;;;;;;13.20;9.90;;;3.60;99.90;;;;;;5071513;28;20044;-76
2022/01/14 07:15:47;;;;;;;14.68;10.43;;;3.60;99.90;;;;;;5084406;28;20066;-76
2022/01/14 07:18:12;;;;;;;15.32;9.23;;;3.60;99.90;;;;;;5092052;28;20032;-76
2022/01/14 07:20:38;;;;;;;12.63;9.75;;;3.70;99.90;;;;;;5088857;28;20016;-76
2022/01/14 07:23:04;;;;;;;19.80;12.35;;;3.60;99.90;;;;;;5088346;28;20020;-76
2022/01/14 07:25:30;;;;;;;15.05;10.43;;;3.70;99.90;;;;;;5082308;28;20066;-76
2022/01/14 07:27:57;;;;;;;34.75;15.95;;;3.60;99.90;;;;;;5088506;28;20065;-76
2022/01/14 07:30:23;;;;;;;26.40;12.63;;;3.60;99.90;;;;;;5088328;28;20032;-76
2022/01/14 07:32:48;;;;;;;19.10;11.52;;;3.60;99.90;;;;;;5094746;28;20065;-76
2022/01/14 07:35:14;;;;;;;16.15;11.65;;;3.60;99.90;;;;;;5078913;28;20041;-76
2022/01/14 07:37:40;;;;;;;22.08;12.05;;;3.60;99.90;;;;;;5074308;28;20024;-75
2022/01/14 07:40:06;;;;;;;22.85;12.25;;;3.60;99.90;;;;;;5075177;28;20479;-76
2022/01/14 07:42:33;;;;;;;18.60;13.25;;;3.60;99.90;;;;;;5083743;28;20020;-75
2022/01/14 07:44:59;;;;;;;24.00;14.43;;;3.60;99.90;;;;;;5077444;28;20479;-76
2022/01/14 07:47:27;;;;;;;25.25;14.85;;;3.60;99.90;;;;;;5094944;28;20020;-76
2022/01/14 07:49:53;;;;;;;24.95;13.10;;;3.70;99.90;;;;;;5092656;28;20073;-75
2022/01/14 07:52:19;;;;;;;28.20;12.35;;;3.70;99.90;;;;;;5082959;28;20013;-75
2022/01/14 07:54:45;;;;;;;18.35;12.95;;;3.80;99.90;;;;;;5074770;28;20032;-76
2022/01/14 07:57:11;;;;;;;19.55;12.05;;;3.70;99.90;;;;;;5085678;28;20016;-77
2022/01/14 07:59:37;;;;;;;17.75;12.57;;;3.70;99.90;;;;;;5089136;28;20028;-76
2022/01/14 08:02:04;;;;;;;19.52;12.38;;;3.70;99.90;;;;;;5095248;28;20024;-76
2022/01/14 08:04:33;;;;;;;15.90;12.07;;;3.70;99.90;;;;;;5086975;28;20052;-76
2022/01/14 08:07:08;;;;;;;18.40;12.15;;;3.70;99.90;;;;;;5094519;28;20038;-77
2022/01/14 08:09:36;;;;;;;23.65;12.93;;;3.80;99.90;;;;;;5092187;28;20562;-77
2022/01/14 08:12:02;;;;;;;30.35;12.90;;;3.80;99.90;;;;;;5087888;28;20028;-77
2022/01/14 08:14:27;;;;;;;23.33;12.52;;;3.90;99.90;;;;;;5084436;28;20028;-77
2022/01/14 08:16:53;;;;;;;17.55;11.40;;;3.80;99.90;;;;;;5082829;28;20069;-76
2022/01/14 08:19:18;;;;;;;24.50;11.13;;;3.90;99.90;;;;;;5073406;28;20016;-77
2022/01/14 08:21:44;;;;;;;18.77;11.88;;;3.90;99.90;;;;;;5079594;28;20184;-76
2022/01/14 08:24:10;;;;;;;23.15;11.15;;;4.00;99.90;;;;;;5087324;28;20020;-76
2022/01/14 08:26:35;;;;;;;17.55;10.93;;;3.90;99.90;;;;;;5073357;28;20529;-74
2022/01/14 08:29:01;;;;;;;19.25;11.93;;;3.90;99.90;;;;;;5073892;28;20035;-74
2022/01/14 08:31:27;;;;;;;18.00;10.52;;;3.90;99.90;;;;;;5073818;28;20034;-75
2022/01/14 08:33:53;;;;;;;16.33;12.18;;;3.90;99.90;;;;;;5087020;28;20502;-75
2022/01/14 08:36:23;;;;;;;18.30;12.07;;;3.90;99.90;;;;;;5092441;28;20023;-75
2022/01/14 08:38:49;;;;;;;;;;;3.90;99.90;;;;;;5080138;28;20020;-75
2022/01/14 08:41:15;;;;;;;22.25;11.68;;;4.00;99.90;;;;;;5073380;28;20318;-76
2022/01/14 08:43:41;;;;;;;20.00;12.23;;;4.00;99.90;;;;;;5089661;28;20024;-77
2022/01/14 08:46:07;;;;;;;21.67;13.77;;;4.00;99.90;;;;;;5093742;28;20524;-74
2022/01/14 08:48:33;;;;;;;27.73;14.05;;;4.00;99.90;;;;;;5093924;28;20020;-76
2022/01/14 08:50:59;;;;;;;27.10;15.00;;;4.00;99.90;;;;;;5094379;28;20031;-74
2022/01/14 08:53:25;;;;;;;26.75;14.55;;;4.00;99.90;;;;;;5077884;28;20028;-74
2022/01/14 08:55:50;;;;;;;28.13;14.98;;;4.10;99.90;;;;;;5072676;28;20032;-76
2022/01/14 08:58:16;;;;;;;25.27;14.35;;;4.10;99.90;;;;;;5078139;28;20064;-75
2022/01/14 09:00:44;;;;;;;25.17;15.10;;;4.10;99.90;;;;;;5075001;28;20028;-76
2022/01/14 09:03:09;;;;;;;23.65;13.88;;;4.20;99.90;;;;;;5093162;28;20043;-74
2022/01/14 09:05:35;;;;;;;24.42;13.75;;;4.30;99.90;;;;;;5094201;28;20032;-74
2022/01/14 09:08:02;;;;;;;25.45;15.45;;;4.30;99.90;;;;;;5094418;28;20105;-74
2022/01/14 09:10:27;;;;;;;27.52;14.55;;;4.40;99.90;;;;;;5078825;28;20064;-75
2022/01/14 09:12:53;;;;;;;22.83;13.93;;;4.30;99.90;;;;;;5074177;28;20056;-75
2022/01/14 09:15:19;;;;;;;29.60;14.85;;;4.40;99.90;;;;;;5073500;28;20028;-74
2022/01/14 09:17:45;;;;;;;20.75;13.13;;;4.40;99.90;;;;;;5073983;28;20025;-74
2022/01/14 09:20:14;;;;;;;20.63;12.75;;;4.40;99.90;;;;;;5073522;28;20476;-75
2022/01/14 09:22:47;;;;;;;18.75;11.73;;;4.50;99.90;;;;;;5074661;28;20035;-77
2022/01/14 09:25:13;;;;;;;22.75;12.98;;;4.50;99.90;;;;;;5074312;28;20051;-76
2022/01/14 09:27:39;;;;;;;20.23;11.73;;;4.50;99.90;;;;;;5075615;28;20070;-75
2022/01/14 09:30:05;;;;;;;22.55;12.40;;;4.50;99.90;;;;;;5074492;28;20021;-77
2022/01/14 09:32:31;;;;;;;24.33;13.35;;;4.60;99.90;;;;;;5079670;28;20024;-81
2022/01/14 09:34:57;;;;;;;22.50;12.90;;;4.60;99.90;;;;;;5076065;28;20033;-74
2022/01/14 09:37:23;;;;;;;24.48;13.65;;;4.60;99.90;;;;;;5073120;28;20464;-75
2022/01/14 09:39:48;;;;;;;22.75;12.50;;;4.70;99.90;;;;;;5074007;28;20074;-74
2022/01/14 09:42:14;;;;;;;20.38;12.82;;;4.60;99.90;;;;;;5074571;28;20332;-73
2022/01/14 09:44:44;;;;;;;29.50;15.00;;;4.70;99.90;;;;;;5087967;28;20024;-74
2022/01/14 09:47:16;;;;;;;20.52;13.35;;;4.80;99.90;;;;;;5082340;28;20023;-75
2022/01/14 09:49:45;;;;;;;18.50;13.23;;;4.80;99.90;;;;;;5086738;28;20036;-75
2022/01/14 09:52:13;;;;;;;23.85;13.20;;;4.90;99.90;;;;;;5081253;28;20028;-75
2022/01/14 09:54:44;;;;;;;23.90;13.73;;;5.00;99.90;;;;;;5092593;28;20051;-76
2022/01/14 09:57:13;;;;;;;21.65;12.73;;;5.00;99.90;;;;;;5084450;28;20028;-76
2022/01/14 09:59:39;;;;;;;27.35;13.70;;;5.00;99.90;;;;;;5078621;28;20017;-78
2022/01/14 10:02:05;;;;;;;22.08;13.35;;;5.00;99.90;;;;;;5090517;28;20024;-74
2022/01/14 10:04:31;;;;;;;22.60;14.00;;;5.00;99.90;;;;;;5086331;28;20044;-75
2022/01/14 10:07:01;;;;;;;27.65;14.23;;;5.00;99.90;;;;;;5090985;28;20028;-74
2022/01/14 10:09:37;;;;;;;21.65;14.45;;;5.10;99.90;;;;;;5086430;28;20016;-76
2022/01/14 10:12:17;;;;;;;27.35;14.98;;;5.20;99.90;;;;;;5085675;28;20040;-74
2022/01/14 10:14:57;;;;;;;21.60;13.73;;;5.20;99.90;;;;;;5089584;28;20028;-75
2022/01/14 10:17:25;;;;;;;24.60;15.32;;;5.20;99.90;;;;;;5090108;28;20028;-75
2022/01/14 10:19:51;;;;;;;20.52;13.80;;;5.20;99.90;;;;;;5072261;28;20029;-74
2022/01/14 10:22:18;;;;;;;27.05;14.73;;;5.20;99.90;;;;;;5071959;28;20028;-75
2022/01/14 10:24:53;;;;;;;24.80;14.77;;;5.30;99.90;;;;;;5072689;28;20481;-73
2022/01/14 10:27:42;;;;;;;23.45;14.68;;;5.30;99.90;;;;;;5072024;28;20027;-73
2022/01/14 10:30:14;;;;;;;25.70;14.70;;;5.30;99.90;;;;;;5072208;28;20025;-73
2022/01/14 10:32:42;;;;;;;29.27;16.15;;;5.40;99.90;;;;;;5072359;28;20043;-73
2022/01/14 10:35:13;;;;;;;28.52;15.18;;;5.40;99.90;;;;;;5072020;28;20382;-73
2022/01/14 10:37:39;;;;;;;20.95;14.38;;;5.50;99.90;;;;;;5072611;28;20036;-74
2022/01/14 10:40:13;;;;;;;22.85;15.30;;;5.50;99.90;;;;;;5071641;28;20027;-73
2022/01/14 10:42:41;;;;;;;26.85;16.00;;;5.50;99.90;;;;;;5072327;28;20079;-73
2022/01/14 10:45:27;;;;;;;23.83;14.20;;;5.50;99.90;;;;;;5086319;28;20035;-73
2022/01/14 10:48:09;;;;;;;22.13;14.35;;;5.60;99.90;;;;;;5090063;28;20468;-72
2022/01/14 10:50:40;;;;;;;28.25;15.07;;;5.60;99.90;;;;;;5090963;28;20039;-72
2022/01/14 10:53:16;;;;;;;31.17;15.25;;;5.60;99.90;;;;;;5090960;28;20114;-72
2022/01/14 10:55:45;;;;;;;23.40;15.23;;;5.70;99.90;;;;;;5086597;28;20172;-73
2022/01/14 10:58:26;;;;;;;17.60;12.45;;;5.70;99.90;;;;;;5090762;28;20491;-73
2022/01/14 11:01:11;;;;;;;21.75;15.93;;;5.80;99.90;;;;;;5087810;28;20066;-74
2022/01/14 11:03:39;;;;;;;25.98;14.35;;;5.80;99.90;;;;;;5087597;28;20040;-73
2022/01/14 11:06:17;;;;;;;25.70;15.70;;;5.90;99.90;;;;;;5090587;28;20036;-74
2022/01/14 11:08:43;;;;;;;22.35;13.55;;;5.90;99.90;;;;;;5093787;28;20110;-74
2022/01/14 11:11:09;;;;;;;24.70;14.25;;;5.90;99.90;;;;;;5094359;28;20032;-74
2022/01/14 11:13:37;;;;;;;21.65;14.65;;;6.00;99.90;;;;;;5093983;28;20483;-74
2022/01/14 11:16:03;;;;;;;27.23;14.63;;;6.00;99.90;;;;;;5092805;28;20059;-74
2022/01/14 11:18:29;;;;;;;20.83;14.35;;;6.00;99.90;;;;;;5094101;28;20581;-73
2022/01/14 11:23:39;;;;;;;22.83;14.25;;;6.10;99.90;;;;;;5090428;28;20490;-74
2022/01/14 11:26:07;;;;;;;25.00;14.60;;;6.10;99.90;;;;;;5093364;28;20024;-74
2022/01/14 11:28:41;;;;;;;21.60;14.57;;;6.10;99.90;;;;;;5093372;28;20031;-73
2022/01/14 11:31:30;;;;;;;20.30;14.40;;;6.10;99.90;;;;;;5092855;28;20032;-73
2022/01/14 11:34:00;;;;;;;19.90;13.68;;;6.20;99.90;;;;;;5091896;28;20097;-74
2022/01/14 11:36:56;;;;;;;21.15;14.85;;;6.20;99.90;;;;;;5092656;28;20066;-73
2022/01/14 11:39:28;;;;;;;22.83;14.48;;;6.20;99.90;;;;;;5093635;28;20030;-74
2022/01/14 11:42:08;;;;;;;20.48;13.48;;;6.30;99.90;;;;;;5089817;28;20029;-73
2022/01/14 11:44:56;;;;;;;23.95;14.65;;;6.30;99.90;;;;;;5090843;28;20020;-74
2022/01/14 11:47:25;;;;;;;25.08;15.90;;;6.20;99.90;;;;;;5091670;28;20121;-74
2022/01/14 11:49:53;;;;;;;27.92;15.85;;;6.30;99.90;;;;;;5092847;28;20476;-74
2022/01/14 11:52:37;;;;;;;22.83;15.25;;;6.30;99.90;;;;;;5092573;28;20115;-72
2022/01/14 11:55:19;;;;;;;18.42;13.35;;;6.30;99.90;;;;;;5090620;28;20060;-72
2022/01/14 11:57:47;;;;;;;18.95;14.45;;;6.30;99.90;;;;;;5091351;28;20048;-73
2022/01/14 12:00:28;;;;;;;21.27;14.30;;;6.30;99.90;;;;;;5084456;28;20498;-74
2022/01/14 12:02:57;;;;;;;25.40;14.50;;;6.30;99.90;;;;;;5072787;28;20248;-73
2022/01/14 12:05:30;;;;;;;21.25;14.60;;;6.40;99.90;;;;;;5071510;28;20070;-74
2022/01/14 12:08:08;;;;;;;24.45;16.08;;;6.40;99.90;;;;;;5087620;28;20031;-73
2022/01/14 12:10:41;;;;;;;21.33;15.23;;;6.40;99.90;;;;;;5093127;28;20022;-73
2022/01/14 12:16:18;;;;;;;32.90;16.63;;;6.50;99.90;;;;;;5093049;28;20381;-74
2022/01/14 12:19:02;;;;;;;24.25;15.13;;;6.50;99.90;;;;;;5091609;28;20024;-73
2022/01/14 12:21:48;;;;;;;20.77;15.63;;;6.50;99.90;;;;;;5095347;28;20387;-74
2022/01/14 12:24:27;;;;;;;22.27;15.80;;;6.50;99.90;;;;;;5093431;28;20032;-73
2022/01/14 12:27:00;;;;;;;24.88;16.05;;;6.50;99.90;;;;;;5089690;28;20023;-73
2022/01/14 12:29:47;;;;;;;28.63;16.55;;;6.60;99.90;;;;;;5092675;28;20024;-73
2022/01/14 12:32:18;;;;;;;23.38;15.70;;;6.60;99.90;;;;;;5091851;28;20044;-73
2022/01/14 12:34:55;;;;;;;28.08;16.70;;;6.50;99.90;;;;;;5092710;28;20383;-74
2022/01/14 12:37:26;;;;;;;18.70;15.82;;;6.60;99.90;;;;;;5092499;28;20502;-75
2022/01/14 12:39:52;;;;;;;23.52;16.15;;;6.50;99.90;;;;;;5091749;28;20472;-74
2022/01/14 12:42:19;;;;;;;23.58;15.77;;;6.60;99.90;;;;;;5092534;28;20041;-74
2022/01/14 12:44:47;;;;;;;26.33;16.30;;;6.60;99.90;;;;;;5092836;28;20024;-74
2022/01/14 12:47:20;;;;;;;26.83;17.60;;;6.60;99.90;;;;;;5091757;28;20031;-74
2022/01/14 12:49:47;;;;;;;29.58;18.35;;;6.60;99.90;;;;;;5092927;28;20020;-73
2022/01/14 12:52:16;;;;;;;26.38;17.08;;;6.60;99.90;;;;;;5093078;28;20028;-74
2022/01/14 12:54:44;;;;;;;23.25;16.92;;;6.60;99.90;;;;;;5092359;28;20032;-74
2022/01/14 12:57:15;;;;;;;22.92;16.15;;;6.60;99.90;;;;;;5092624;28;20387;-74
2022/01/14 12:59:48;;;;;;;26.95;16.45;;;6.60;99.90;;;;;;5089757;28;20024;-74
2022/01/14 13:02:21;;;;;;;21.65;15.80;;;6.60;99.90;;;;;;5088038;28;20054;-74
2022/01/14 13:05:06;;;;;;;26.48;16.90;;;6.60;99.90;;;;;;5091857;28;20131;-74
2022/01/14 13:07:33;;;;;;;26.00;17.50;;;6.70;99.90;;;;;;5091513;28;20024;-75
2022/01/14 13:09:59;;;;;;;20.55;16.17;;;6.70;99.90;;;;;;5091816;28;20111;-74
2022/01/14 13:12:29;;;;;;;27.95;18.38;;;6.70;99.90;;;;;;5092149;28;20116;-74
2022/01/14 13:15:04;;;;;;;27.67;17.88;;;6.70;99.90;;;;;;5091687;28;20442;-74
2022/01/14 13:17:43;;;;;;;25.98;17.10;;;6.70;99.90;;;;;;5091934;28;20551;-75
2022/01/14 13:20:10;;;;;;;20.88;16.67;;;6.80;99.90;;;;;;5091465;28;20028;-74